Northwood, IA

10:33 PM CDT on September 02, 2015 (GMT -0500)
KMNGLENV5 | | Change Station
CLOSE
Current Station
Personal Weather Station
Location: Glenville, MN
Elevation: 1320 ft
Nearby Weather Stations

Elev 1320 ft 43.54 °N, 93.24 °W | Updated 3 minutes ago

Clear
Clear
74.8 °F
Feels Like 73 °F
N
8.3
Wind Variable Wind from West
Gusts 9.2 mph

Today
High -- | Low -- °F
--% Chance of Precip.
Yesterday
High -- | Low -- °F
Precip. -- in
6:37 AM 7:46 PM
Waning Gibbous, 74% visible
Pressure 29.90 in
Visibility 10.0 miles
Clouds Clear
Heat Index 73 °F
Dew Point 73 °F
Humidity 93%
Rainfall 0.02 in
Snow Depth Not available.
UV 0 out of 12
Pollen 10.40 out of 12
Air Quality Not available.
Flu Activity Not available.
METAR KAEL 030313Z AUTO 00000KT 10SM CLR 23/22 A2990 RMK AO2
Pressure 29.90 in
Visibility 10.0 miles
Clouds Clear
Heat Index 73 °F
Dew Point 73 °F
Humidity 93%
Rainfall 0.02 in
Snow Depth Not available.
UV 0 out of 12
Pollen 10.40 out of 12
Air Quality Not available.
Flu Activity Not available.
METAR KAEL 030313Z AUTO 00000KT 10SM CLR 23/22 A2990 RMK AO2

10-Day Weather Forecast

×

Almanac

Astronomy

Sep. 02, 2015 Rise Set
Actual Time
Civil Twilight
Nautical Twilight
Astronomical Twilight
Moon
Length of Visible Light
Length of Day
Tomorrow will be .
, % of the Moon is Illuminated

Today's Extremes

State Highs State Lows

Community

WunderPhotos

Upload Photos

1,851,902 photos uploaded!

WunderBlogs® & News

Nearby

Air Quality

  Air Quality AQ Index Pollutant
Not available.

Snow Depth

Station Depth Elevation

Earthquake Activity

City Distance Mag. Time & Date
Minimum magnitude displayed is 2.5.

Coastal Water Temperatures

Place Temperature

Stations

Nearby Weather Stations

Station Location Temp. Windchill Dew Point Humidity Wind Precip. Elev Updated Type